< < Back
Terminal Aerodrome Forecast


Current Version              Previous Versions:   1  2  3  4  5  6  7  8  9  

Terminal Aerodrome Forecast

259
FTUS42 KGSP 220500
TAFAND
TAF
KAND 220523Z 2206/2306 34004KT P6SM SKC
     FM221000 34003KT P6SM SKC=

Latest METAR

580
SAUS70 KWBC 221400 RRA
MTRAND
METAR KAND 221356Z AUTO 25003KT 10SM CLR 12/07 A3010 RMK AO2 SLP189
T01170067


USA.gov is the U.S. government's official web portal to all federal, state and local government web resources and services.